Montrose, CO

7:59 PM MST on December 17, 2014 (GMT -0700)
NE Montrose | Change Station
CLOSE
Current Station
Personal Weather Station
Location: Montrose, CO
Elevation: 6040 ft
Nearby Weather Stations

Elev 6040 ft 38.50 °N, 107.82 °W | Updated 1 second ago

Overcast
Overcast
34.0 °F
Feels Like 34 °F
N
2.3
Wind Variable Wind from NW
Gusts 2.3 mph

Today
High -- | Low -- °F
--% Chance of Precip.
Yesterday
High -- | Low -- °F
Precip. -- in
7:22 AM 4:52 PM
Waning Crescent, 18% visible
Pressure 30.02 in
Visibility 7.0 miles
Clouds Overcast 200 ft
Windchill 34 °F
Dew Point 30 °F
Humidity 84%
Rainfall 0.00 in
Snow Depth Not available.
UV 0 out of 12
Pollen .10 out of 12
Air Quality Not available.
Flu Activity Not available.
METAR KMTJ 180253Z AUTO 34003KT 7SM OVC002 01/01 A3002 RMK AO2 SLP166 T00110011 51009

More Conditions Fewer Conditions

Pressure 30.02 in
Visibility 7.0 miles
Clouds Overcast 200 ft
Windchill 34 °F
Dew Point 30 °F
Humidity 84%
Rainfall 0.00 in
Snow Depth Not available.
UV 0 out of 12
Pollen .10 out of 12
Air Quality Not available.
Flu Activity Not available.
METAR KMTJ 180253Z AUTO 34003KT 7SM OVC002 01/01 A3002 RMK AO2 SLP166 T00110011 51009

More Conditions Fewer Conditions

10-Day Weather Forecast

Almanac

Astronomy

Dec. 17, 2014 Rise Set
Actual Time
Civil Twilight
Nautical Twilight
Astronomical Twilight
Moon
Length of Visible Light
Length of Day
Tomorrow will be .
, % of the Moon is Illuminated

Today's Extremes

State Highs State Lows

Community

WunderPhotos

Upload Photos

1,778,871 photos uploaded!

WunderBlogs® & News

Nearby

Air Quality

  Air Quality AQ Index Pollutant
Not available.

Snow Depth

Station Depth Elevation

Earthquake Activity

City Distance Mag. Time & Date
Minimum magnitude displayed is 2.5.

Coastal Water Temperatures

Place Temperature

Nearby Weather Stations